sensor_id;sensor_type;location;lat;lon;timestamp;temperature;humidity
15638;DHT22;26604;53.596;10.042;2023-06-14T00:00:47;14.30;99.90
15638;DHT22;26604;53.596;10.042;2023-06-14T00:03:14;14.40;99.90
15638;DHT22;26604;53.596;10.042;2023-06-14T00:05:43;14.30;99.90
15638;DHT22;26604;53.596;10.042;2023-06-14T00:08:12;14.20;99.90
15638;DHT22;26604;53.596;10.042;2023-06-14T00:10:40;14.20;99.90
15638;DHT22;26604;53.596;10.042;2023-06-14T00:13:09;14.10;99.90
15638;DHT22;26604;53.596;10.042;2023-06-14T00:15:36;14.10;99.90
15638;DHT22;26604;53.596;10.042;2023-06-14T00:18:04;14.10;99.90
15638;DHT22;26604;53.596;10.042;2023-06-14T00:20:32;14.00;99.90
15638;DHT22;26604;53.596;10.042;2023-06-14T00:22:59;14.00;99.90
15638;DHT22;26604;53.596;10.042;2023-06-14T00:25:26;14.00;99.90
15638;DHT22;26604;53.596;10.042;2023-06-14T00:27:54;13.90;99.90
15638;DHT22;26604;53.596;10.042;2023-06-14T00:30:23;14.00;99.90
15638;DHT22;26604;53.596;10.042;2023-06-14T00:32:50;14.00;99.90
15638;DHT22;26604;53.596;10.042;2023-06-14T00:35:17;14.00;99.90
15638;DHT22;26604;53.596;10.042;2023-06-14T00:37:44;13.90;99.90
15638;DHT22;26604;53.596;10.042;2023-06-14T00:40:11;13.90;99.90
15638;DHT22;26604;53.596;10.042;2023-06-14T00:42:38;13.90;99.90
15638;DHT22;26604;53.596;10.042;2023-06-14T00:45:05;13.90;99.90
15638;DHT22;26604;53.596;10.042;2023-06-14T00:47:34;13.90;99.90
15638;DHT22;26604;53.596;10.042;2023-06-14T00:50:03;13.90;99.90
15638;DHT22;26604;53.596;10.042;2023-06-14T00:52:32;13.90;99.90
15638;DHT22;26604;53.596;10.042;2023-06-14T00:55:00;13.80;99.90
15638;DHT22;26604;53.596;10.042;2023-06-14T00:57:27;13.80;99.90
15638;DHT22;26604;53.596;10.042;2023-06-14T00:59:55;13.80;99.90
15638;DHT22;26604;53.596;10.042;2023-06-14T01:02:22;13.70;99.90
15638;DHT22;26604;53.596;10.042;2023-06-14T01:04:52;13.70;99.90
15638;DHT22;26604;53.596;10.042;2023-06-14T01:07:25;13.70;99.90
15638;DHT22;26604;53.596;10.042;2023-06-14T01:10:08;13.70;99.90
15638;DHT22;26604;53.596;10.042;2023-06-14T01:12:42;13.70;99.90
15638;DHT22;26604;53.596;10.042;2023-06-14T01:15:12;13.70;99.90
15638;DHT22;26604;53.596;10.042;2023-06-14T01:17:41;13.70;99.90
15638;DHT22;26604;53.596;10.042;2023-06-14T01:20:12;13.80;99.90
15638;DHT22;26604;53.596;10.042;2023-06-14T01:22:51;13.70;99.90
15638;DHT22;26604;53.596;10.042;2023-06-14T01:25:19;13.80;99.90
15638;DHT22;26604;53.596;10.042;2023-06-14T01:27:48;13.70;99.90
15638;DHT22;26604;53.596;10.042;2023-06-14T01:30:17;13.70;99.90
15638;DHT22;26604;53.596;10.042;2023-06-14T01:32:45;13.70;99.90
15638;DHT22;26604;53.596;10.042;2023-06-14T01:35:12;13.60;99.90
15638;DHT22;26604;53.596;10.042;2023-06-14T01:37:40;13.60;99.90
15638;DHT22;26604;53.596;10.042;2023-06-14T01:40:10;13.50;99.90
15638;DHT22;26604;53.596;10.042;2023-06-14T01:42:38;13.40;99.90
15638;DHT22;26604;53.596;10.042;2023-06-14T01:45:07;13.40;99.90
15638;DHT22;26604;53.596;10.042;2023-06-14T01:47:35;13.40;99.90
15638;DHT22;26604;53.596;10.042;2023-06-14T01:50:03;13.30;99.90
15638;DHT22;26604;53.596;10.042;2023-06-14T01:52:30;13.30;99.90
15638;DHT22;26604;53.596;10.042;2023-06-14T01:54:57;13.30;99.90
15638;DHT22;26604;53.596;10.042;2023-06-14T01:57:30;13.30;99.90
15638;DHT22;26604;53.596;10.042;2023-06-14T01:59:56;13.40;99.90
15638;DHT22;26604;53.596;10.042;2023-06-14T02:02:23;13.40;99.90
15638;DHT22;26604;53.596;10.042;2023-06-14T02:04:50;13.30;99.90
15638;DHT22;26604;53.596;10.042;2023-06-14T02:07:17;13.20;99.90
15638;DHT22;26604;53.596;10.042;2023-06-14T02:09:44;13.20;99.90
15638;DHT22;26604;53.596;10.042;2023-06-14T02:12:11;13.20;99.90
15638;DHT22;26604;53.596;10.042;2023-06-14T02:14:39;13.20;99.90
15638;DHT22;26604;53.596;10.042;2023-06-14T02:17:06;13.10;99.90
15638;DHT22;26604;53.596;10.042;2023-06-14T02:19:33;13.00;99.90
15638;DHT22;26604;53.596;10.042;2023-06-14T02:22:00;13.00;99.90
15638;DHT22;26604;53.596;10.042;2023-06-14T02:24:27;13.00;99.90
15638;DHT22;26604;53.596;10.042;2023-06-14T02:26:54;13.00;99.90
15638;DHT22;26604;53.596;10.042;2023-06-14T02:29:21;13.00;99.90
15638;DHT22;26604;53.596;10.042;2023-06-14T02:31:49;13.00;99.90
15638;DHT22;26604;53.596;10.042;2023-06-14T02:34:16;13.00;99.90
15638;DHT22;26604;53.596;10.042;2023-06-14T02:36:43;13.00;99.90
15638;DHT22;26604;53.596;10.042;2023-06-14T02:39:10;13.00;99.90
15638;DHT22;26604;53.596;10.042;2023-06-14T02:41:38;13.00;99.90
15638;DHT22;26604;53.596;10.042;2023-06-14T02:44:05;13.00;99.90
15638;DHT22;26604;53.596;10.042;2023-06-14T02:46:32;13.00;99.90
15638;DHT22;26604;53.596;10.042;2023-06-14T02:49:00;12.90;99.90
15638;DHT22;26604;53.596;10.042;2023-06-14T02:51:27;12.90;99.90
15638;DHT22;26604;53.596;10.042;2023-06-14T02:53:54;12.90;99.90
15638;DHT22;26604;53.596;10.042;2023-06-14T02:56:21;12.90;99.90
15638;DHT22;26604;53.596;10.042;2023-06-14T02:58:48;12.80;99.90
15638;DHT22;26604;53.596;10.042;2023-06-14T03:01:16;12.80;99.90
15638;DHT22;26604;53.596;10.042;2023-06-14T03:03:43;12.80;99.90
15638;DHT22;26604;53.596;10.042;2023-06-14T03:06:12;12.80;99.90
15638;DHT22;26604;53.596;10.042;2023-06-14T03:08:39;12.80;99.90
15638;DHT22;26604;53.596;10.042;2023-06-14T03:11:07;12.80;99.90
15638;DHT22;26604;53.596;10.042;2023-06-14T03:13:34;12.80;99.90
15638;DHT22;26604;53.596;10.042;2023-06-14T03:16:01;12.80;99.90
15638;DHT22;26604;53.596;10.042;2023-06-14T03:18:29;12.90;99.90
15638;DHT22;26604;53.596;10.042;2023-06-14T03:21:00;12.90;99.90
15638;DHT22;26604;53.596;10.042;2023-06-14T03:23:29;12.90;99.90
15638;DHT22;26604;53.596;10.042;2023-06-14T03:25:56;13.00;99.90
15638;DHT22;26604;53.596;10.042;2023-06-14T03:28:23;12.90;99.90
15638;DHT22;26604;53.596;10.042;2023-06-14T03:30:51;12.90;99.90
15638;DHT22;26604;53.596;10.042;2023-06-14T03:33:18;13.10;99.90
15638;DHT22;26604;53.596;10.042;2023-06-14T03:35:45;13.10;99.90
15638;DHT22;26604;53.596;10.042;2023-06-14T03:38:12;13.10;99.90
15638;DHT22;26604;53.596;10.042;2023-06-14T03:40:40;13.20;99.90
15638;DHT22;26604;53.596;10.042;2023-06-14T03:43:07;13.20;99.90
15638;DHT22;26604;53.596;10.042;2023-06-14T03:45:34;13.30;99.90
15638;DHT22;26604;53.596;10.042;2023-06-14T03:48:01;13.30;99.90
15638;DHT22;26604;53.596;10.042;2023-06-14T03:50:28;13.30;99.90
15638;DHT22;26604;53.596;10.042;2023-06-14T03:52:55;13.40;99.90
15638;DHT22;26604;53.596;10.042;2023-06-14T03:55:22;13.40;99.90
15638;DHT22;26604;53.596;10.042;2023-06-14T03:57:52;13.50;99.90
15638;DHT22;26604;53.596;10.042;2023-06-14T04:00:19;13.50;99.90
15638;DHT22;26604;53.596;10.042;2023-06-14T04:02:46;13.50;99.90
15638;DHT22;26604;53.596;10.042;2023-06-14T04:05:13;13.60;99.90
15638;DHT22;26604;53.596;10.042;2023-06-14T04:07:42;13.60;99.90
15638;DHT22;26604;53.596;10.042;2023-06-14T04:10:11;13.70;99.90
15638;DHT22;26604;53.596;10.042;2023-06-14T04:12:38;13.70;99.90
15638;DHT22;26604;53.596;10.042;2023-06-14T04:15:08;13.80;99.90
15638;DHT22;26604;53.596;10.042;2023-06-14T04:17:36;13.90;99.90
15638;DHT22;26604;53.596;10.042;2023-06-14T04:20:04;14.00;99.90
15638;DHT22;26604;53.596;10.042;2023-06-14T04:22:32;14.10;99.90
15638;DHT22;26604;53.596;10.042;2023-06-14T04:24:59;14.20;99.90
15638;DHT22;26604;53.596;10.042;2023-06-14T04:27:26;14.30;99.90
15638;DHT22;26604;53.596;10.042;2023-06-14T04:29:56;14.40;99.90
15638;DHT22;26604;53.596;10.042;2023-06-14T04:32:26;14.40;99.90
15638;DHT22;26604;53.596;10.042;2023-06-14T04:34:55;14.50;99.90
15638;DHT22;26604;53.596;10.042;2023-06-14T04:37:23;14.50;99.90
15638;DHT22;26604;53.596;10.042;2023-06-14T04:39:50;14.60;99.90
15638;DHT22;26604;53.596;10.042;2023-06-14T04:42:17;14.70;99.90
15638;DHT22;26604;53.596;10.042;2023-06-14T04:44:46;14.80;99.90
15638;DHT22;26604;53.596;10.042;2023-06-14T04:47:14;14.90;99.90
15638;DHT22;26604;53.596;10.042;2023-06-14T04:49:43;15.00;99.90
15638;DHT22;26604;53.596;10.042;2023-06-14T04:52:10;15.20;99.90
15638;DHT22;26604;53.596;10.042;2023-06-14T04:54:38;16.30;99.90
15638;DHT22;26604;53.596;10.042;2023-06-14T04:57:07;18.30;99.90
15638;DHT22;26604;53.596;10.042;2023-06-14T04:59:34;20.10;99.90
15638;DHT22;26604;53.596;10.042;2023-06-14T05:02:02;21.60;99.90
15638;DHT22;26604;53.596;10.042;2023-06-14T05:04:29;22.70;99.90
15638;DHT22;26604;53.596;10.042;2023-06-14T05:06:57;23.50;99.90
15638;DHT22;26604;53.596;10.042;2023-06-14T05:09:24;23.00;99.90
15638;DHT22;26604;53.596;10.042;2023-06-14T05:11:51;22.20;99.90
15638;DHT22;26604;53.596;10.042;2023-06-14T05:14:18;21.40;99.90
15638;DHT22;26604;53.596;10.042;2023-06-14T05:16:45;21.00;99.90
15638;DHT22;26604;53.596;10.042;2023-06-14T05:19:14;20.80;99.90
15638;DHT22;26604;53.596;10.042;2023-06-14T05:21:43;20.70;99.90
15638;DHT22;26604;53.596;10.042;2023-06-14T05:24:11;20.50;99.90
15638;DHT22;26604;53.596;10.042;2023-06-14T05:26:38;19.90;99.90
15638;DHT22;26604;53.596;10.042;2023-06-14T05:29:05;19.30;99.90
15638;DHT22;26604;53.596;10.042;2023-06-14T05:31:32;18.80;99.90
15638;DHT22;26604;53.596;10.042;2023-06-14T05:33:59;18.40;99.90
15638;DHT22;26604;53.596;10.042;2023-06-14T05:36:26;18.00;99.90
15638;DHT22;26604;53.596;10.042;2023-06-14T05:38:53;17.80;99.90
15638;DHT22;26604;53.596;10.042;2023-06-14T05:41:24;17.60;99.90
15638;DHT22;26604;53.596;10.042;2023-06-14T05:43:52;17.50;99.90
15638;DHT22;26604;53.596;10.042;2023-06-14T05:46:19;17.40;99.90
15638;DHT22;26604;53.596;10.042;2023-06-14T05:48:50;17.40;99.90
15638;DHT22;26604;53.596;10.042;2023-06-14T05:51:17;17.40;99.90
15638;DHT22;26604;53.596;10.042;2023-06-14T05:53:45;17.30;99.90
15638;DHT22;26604;53.596;10.042;2023-06-14T05:56:12;17.30;99.90
15638;DHT22;26604;53.596;10.042;2023-06-14T05:58:41;17.40;99.90
15638;DHT22;26604;53.596;10.042;2023-06-14T06:01:08;17.40;99.90
15638;DHT22;26604;53.596;10.042;2023-06-14T06:03:34;17.40;99.90
15638;DHT22;26604;53.596;10.042;2023-06-14T06:06:01;17.50;99.90
15638;DHT22;26604;53.596;10.042;2023-06-14T06:08:29;17.50;99.90
15638;DHT22;26604;53.596;10.042;2023-06-14T06:10:57;17.60;99.90
15638;DHT22;26604;53.596;10.042;2023-06-14T06:13:23;17.60;99.90
15638;DHT22;26604;53.596;10.042;2023-06-14T06:15:52;17.70;99.90
15638;DHT22;26604;53.596;10.042;2023-06-14T06:18:18;17.80;99.90
15638;DHT22;26604;53.596;10.042;2023-06-14T06:20:45;17.80;99.90
15638;DHT22;26604;53.596;10.042;2023-06-14T06:23:13;17.90;99.90
15638;DHT22;26604;53.596;10.042;2023-06-14T06:25:40;18.00;99.90
15638;DHT22;26604;53.596;10.042;2023-06-14T06:28:07;18.00;99.90
15638;DHT22;26604;53.596;10.042;2023-06-14T06:30:34;18.10;99.90
15638;DHT22;26604;53.596;10.042;2023-06-14T06:33:03;18.20;99.90
15638;DHT22;26604;53.596;10.042;2023-06-14T06:35:30;18.20;99.90
15638;DHT22;26604;53.596;10.042;2023-06-14T06:37:58;18.30;99.90
15638;DHT22;26604;53.596;10.042;2023-06-14T06:40:25;18.40;99.90
15638;DHT22;26604;53.596;10.042;2023-06-14T06:42:52;18.40;99.90
15638;DHT22;26604;53.596;10.042;2023-06-14T06:45:20;18.50;99.90
15638;DHT22;26604;53.596;10.042;2023-06-14T06:47:48;18.60;99.90
15638;DHT22;26604;53.596;10.042;2023-06-14T06:50:18;18.60;99.90
15638;DHT22;26604;53.596;10.042;2023-06-14T06:52:45;18.70;99.90
15638;DHT22;26604;53.596;10.042;2023-06-14T06:55:12;18.80;99.90
15638;DHT22;26604;53.596;10.042;2023-06-14T06:57:39;18.80;99.90
15638;DHT22;26604;53.596;10.042;2023-06-14T07:00:07;18.90;99.90
15638;DHT22;26604;53.596;10.042;2023-06-14T07:02:35;19.00;99.90
15638;DHT22;26604;53.596;10.042;2023-06-14T07:05:02;19.10;99.90
15638;DHT22;26604;53.596;10.042;2023-06-14T07:07:31;19.10;99.90
15638;DHT22;26604;53.596;10.042;2023-06-14T07:09:58;19.20;99.90
15638;DHT22;26604;53.596;10.042;2023-06-14T07:12:26;19.30;99.90
15638;DHT22;26604;53.596;10.042;2023-06-14T07:14:55;19.40;99.90
15638;DHT22;26604;53.596;10.042;2023-06-14T07:17:22;19.50;99.90
15638;DHT22;26604;53.596;10.042;2023-06-14T07:19:49;19.60;99.90
15638;DHT22;26604;53.596;10.042;2023-06-14T07:22:16;19.70;99.90
15638;DHT22;26604;53.596;10.042;2023-06-14T07:24:44;19.70;99.90
15638;DHT22;26604;53.596;10.042;2023-06-14T07:27:12;19.80;99.90
15638;DHT22;26604;53.596;10.042;2023-06-14T07:29:39;19.80;99.90
15638;DHT22;26604;53.596;10.042;2023-06-14T07:32:06;19.80;99.90
15638;DHT22;26604;53.596;10.042;2023-06-14T07:34:33;19.90;99.90
15638;DHT22;26604;53.596;10.042;2023-06-14T07:37:00;20.00;99.90
15638;DHT22;26604;53.596;10.042;2023-06-14T07:39:27;20.10;99.90
15638;DHT22;26604;53.596;10.042;2023-06-14T07:41:56;20.20;99.90
15638;DHT22;26604;53.596;10.042;2023-06-14T07:44:23;20.20;99.90
15638;DHT22;26604;53.596;10.042;2023-06-14T07:46:50;20.30;99.90
15638;DHT22;26604;53.596;10.042;2023-06-14T07:49:17;20.40;99.90
15638;DHT22;26604;53.596;10.042;2023-06-14T07:51:44;20.50;99.90
15638;DHT22;26604;53.596;10.042;2023-06-14T07:54:12;20.60;99.90
15638;DHT22;26604;53.596;10.042;2023-06-14T07:56:39;20.70;99.90
15638;DHT22;26604;53.596;10.042;2023-06-14T07:59:07;20.70;99.90
15638;DHT22;26604;53.596;10.042;2023-06-14T08:01:34;20.80;99.90
15638;DHT22;26604;53.596;10.042;2023-06-14T08:04:01;20.90;99.90
15638;DHT22;26604;53.596;10.042;2023-06-14T08:06:28;21.00;99.90
15638;DHT22;26604;53.596;10.042;2023-06-14T08:08:56;21.10;99.90
15638;DHT22;26604;53.596;10.042;2023-06-14T08:11:22;21.10;99.90
15638;DHT22;26604;53.596;10.042;2023-06-14T08:13:50;21.20;98.50
15638;DHT22;26604;53.596;10.042;2023-06-14T08:16:18;21.20;99.90
15638;DHT22;26604;53.596;10.042;2023-06-14T08:18:45;21.30;99.20
15638;DHT22;26604;53.596;10.042;2023-06-14T08:21:12;21.40;96.80
15638;DHT22;26604;53.596;10.042;2023-06-14T08:23:40;21.40;95.20
15638;DHT22;26604;53.596;10.042;2023-06-14T08:26:08;21.50;95.70
15638;DHT22;26604;53.596;10.042;2023-06-14T08:28:35;21.50;97.30
15638;DHT22;26604;53.596;10.042;2023-06-14T08:31:02;21.60;95.40
15638;DHT22;26604;53.596;10.042;2023-06-14T08:33:30;21.70;96.00
15638;DHT22;26604;53.596;10.042;2023-06-14T08:35:59;21.80;96.10
15638;DHT22;26604;53.596;10.042;2023-06-14T08:38:26;21.90;96.00
15638;DHT22;26604;53.596;10.042;2023-06-14T08:40:57;21.90;95.60
15638;DHT22;26604;53.596;10.042;2023-06-14T08:43:24;21.90;97.30
15638;DHT22;26604;53.596;10.042;2023-06-14T08:45:56;22.00;95.10
15638;DHT22;26604;53.596;10.042;2023-06-14T08:48:26;22.10;93.40
15638;DHT22;26604;53.596;10.042;2023-06-14T08:50:56;22.10;94.30
15638;DHT22;26604;53.596;10.042;2023-06-14T08:53:28;22.20;93.80
15638;DHT22;26604;53.596;10.042;2023-06-14T08:55:57;22.30;94.30
15638;DHT22;26604;53.596;10.042;2023-06-14T08:58:27;22.30;94.90
15638;DHT22;26604;53.596;10.042;2023-06-14T09:00:55;22.40;94.30
15638;DHT22;26604;53.596;10.042;2023-06-14T09:03:22;22.30;93.00
15638;DHT22;26604;53.596;10.042;2023-06-14T09:05:57;22.40;92.60
15638;DHT22;26604;53.596;10.042;2023-06-14T09:08:26;22.40;92.00
15638;DHT22;26604;53.596;10.042;2023-06-14T09:10:56;22.50;90.50
15638;DHT22;26604;53.596;10.042;2023-06-14T09:13:23;22.50;91.50
15638;DHT22;26604;53.596;10.042;2023-06-14T09:15:50;22.60;91.10
15638;DHT22;26604;53.596;10.042;2023-06-14T09:18:17;22.60;91.20
15638;DHT22;26604;53.596;10.042;2023-06-14T09:20:45;22.70;91.60
15638;DHT22;26604;53.596;10.042;2023-06-14T09:23:20;22.90;91.00
15638;DHT22;26604;53.596;10.042;2023-06-14T09:25:48;23.00;90.00
15638;DHT22;26604;53.596;10.042;2023-06-14T09:28:17;23.10;90.10
15638;DHT22;26604;53.596;10.042;2023-06-14T09:30:45;23.30;88.00
15638;DHT22;26604;53.596;10.042;2023-06-14T09:33:17;23.30;87.00
15638;DHT22;26604;53.596;10.042;2023-06-14T09:35:45;23.40;86.30
15638;DHT22;26604;53.596;10.042;2023-06-14T09:38:12;23.30;85.10
15638;DHT22;26604;53.596;10.042;2023-06-14T09:40:40;23.10;86.00
15638;DHT22;26604;53.596;10.042;2023-06-14T09:43:07;23.10;87.10
15638;DHT22;26604;53.596;10.042;2023-06-14T09:45:36;23.20;83.60
15638;DHT22;26604;53.596;10.042;2023-06-14T09:48:05;23.20;82.60
15638;DHT22;26604;53.596;10.042;2023-06-14T09:50:33;23.20;83.50
15638;DHT22;26604;53.596;10.042;2023-06-14T09:53:05;23.30;84.60
15638;DHT22;26604;53.596;10.042;2023-06-14T09:55:34;23.20;82.40
15638;DHT22;26604;53.596;10.042;2023-06-14T09:58:05;23.10;85.00
15638;DHT22;26604;53.596;10.042;2023-06-14T10:00:33;23.10;85.10
15638;DHT22;26604;53.596;10.042;2023-06-14T10:03:03;23.30;83.50
15638;DHT22;26604;53.596;10.042;2023-06-14T10:05:32;23.40;80.50
15638;DHT22;26604;53.596;10.042;2023-06-14T10:08:08;23.50;82.30
15638;DHT22;26604;53.596;10.042;2023-06-14T10:10:36;23.70;81.20
15638;DHT22;26604;53.596;10.042;2023-06-14T10:13:06;23.90;80.20
15638;DHT22;26604;53.596;10.042;2023-06-14T10:15:38;24.10;77.20
15638;DHT22;26604;53.596;10.042;2023-06-14T10:18:13;24.20;76.80
15638;DHT22;26604;53.596;10.042;2023-06-14T10:20:52;24.10;76.00
15638;DHT22;26604;53.596;10.042;2023-06-14T10:23:22;24.10;76.30
15638;DHT22;26604;53.596;10.042;2023-06-14T10:25:50;24.40;77.00
15638;DHT22;26604;53.596;10.042;2023-06-14T10:28:23;24.60;75.90
15638;DHT22;26604;53.596;10.042;2023-06-14T10:31:04;24.80;73.30
15638;DHT22;26604;53.596;10.042;2023-06-14T10:33:31;24.70;73.10
15638;DHT22;26604;53.596;10.042;2023-06-14T10:36:09;24.50;72.50
15638;DHT22;26604;53.596;10.042;2023-06-14T10:38:37;24.20;73.80
15638;DHT22;26604;53.596;10.042;2023-06-14T10:41:04;24.00;75.70
15638;DHT22;26604;53.596;10.042;2023-06-14T10:43:33;24.10;77.20
15638;DHT22;26604;53.596;10.042;2023-06-14T10:46:17;24.40;74.50
15638;DHT22;26604;53.596;10.042;2023-06-14T10:48:44;24.40;71.70
15638;DHT22;26604;53.596;10.042;2023-06-14T10:51:18;24.40;72.20
15638;DHT22;26604;53.596;10.042;2023-06-14T10:53:47;24.30;73.70
15638;DHT22;26604;53.596;10.042;2023-06-14T10:56:27;24.20;72.80
15638;DHT22;26604;53.596;10.042;2023-06-14T10:58:58;24.00;74.60
15638;DHT22;26604;53.596;10.042;2023-06-14T11:01:37;24.00;75.80
15638;DHT22;26604;53.596;10.042;2023-06-14T11:04:09;24.40;71.40
15638;DHT22;26604;53.596;10.042;2023-06-14T11:06:47;24.70;72.90
15638;DHT22;26604;53.596;10.042;2023-06-14T11:12:10;25.00;65.60
15638;DHT22;26604;53.596;10.042;2023-06-14T11:14:38;25.40;62.90
15638;DHT22;26604;53.596;10.042;2023-06-14T11:17:06;25.60;61.60
15638;DHT22;26604;53.596;10.042;2023-06-14T11:19:33;26.00;59.30
15638;DHT22;26604;53.596;10.042;2023-06-14T11:22:00;26.30;58.40
15638;DHT22;26604;53.596;10.042;2023-06-14T11:24:26;26.50;58.50
15638;DHT22;26604;53.596;10.042;2023-06-14T11:26:55;26.60;57.40
15638;DHT22;26604;53.596;10.042;2023-06-14T11:29:22;26.50;57.20
15638;DHT22;26604;53.596;10.042;2023-06-14T11:31:51;26.20;58.10
15638;DHT22;26604;53.596;10.042;2023-06-14T11:34:18;26.10;58.00
15638;DHT22;26604;53.596;10.042;2023-06-14T11:36:45;25.90;57.60
15638;DHT22;26604;53.596;10.042;2023-06-14T11:39:13;25.80;59.00
15638;DHT22;26604;53.596;10.042;2023-06-14T11:41:42;25.80;60.30
15638;DHT22;26604;53.596;10.042;2023-06-14T11:44:12;25.80;60.50
15638;DHT22;26604;53.596;10.042;2023-06-14T11:46:39;25.90;59.90
15638;DHT22;26604;53.596;10.042;2023-06-14T11:49:08;25.90;59.20
15638;DHT22;26604;53.596;10.042;2023-06-14T11:51:35;26.20;56.30
15638;DHT22;26604;53.596;10.042;2023-06-14T11:54:03;26.30;57.70
15638;DHT22;26604;53.596;10.042;2023-06-14T11:56:30;26.40;56.80
15638;DHT22;26604;53.596;10.042;2023-06-14T11:58:58;26.20;58.90
15638;DHT22;26604;53.596;10.042;2023-06-14T12:01:25;26.10;58.50
15638;DHT22;26604;53.596;10.042;2023-06-14T12:03:53;25.90;58.60
15638;DHT22;26604;53.596;10.042;2023-06-14T12:06:30;25.90;58.20
15638;DHT22;26604;53.596;10.042;2023-06-14T12:08:59;26.00;56.40
15638;DHT22;26604;53.596;10.042;2023-06-14T12:11:31;26.30;54.40
15638;DHT22;26604;53.596;10.042;2023-06-14T12:13:58;26.40;53.60
15638;DHT22;26604;53.596;10.042;2023-06-14T12:16:30;26.70;55.40
15638;DHT22;26604;53.596;10.042;2023-06-14T12:19:00;26.80;54.40
15638;DHT22;26604;53.596;10.042;2023-06-14T12:21:29;26.80;54.50
15638;DHT22;26604;53.596;10.042;2023-06-14T12:23:56;26.70;54.30
15638;DHT22;26604;53.596;10.042;2023-06-14T12:26:24;26.70;54.10
15638;DHT22;26604;53.596;10.042;2023-06-14T12:28:52;26.50;53.80
15638;DHT22;26604;53.596;10.042;2023-06-14T12:31:19;26.50;53.50
15638;DHT22;26604;53.596;10.042;2023-06-14T12:33:46;26.60;52.70
15638;DHT22;26604;53.596;10.042;2023-06-14T12:36:14;26.60;54.00
15638;DHT22;26604;53.596;10.042;2023-06-14T12:38:43;26.70;54.50
15638;DHT22;26604;53.596;10.042;2023-06-14T12:41:11;26.70;53.90
15638;DHT22;26604;53.596;10.042;2023-06-14T12:43:39;26.60;52.80
15638;DHT22;26604;53.596;10.042;2023-06-14T12:46:06;26.70;51.90
15638;DHT22;26604;53.596;10.042;2023-06-14T12:48:33;26.80;51.90
15638;DHT22;26604;53.596;10.042;2023-06-14T12:51:00;26.90;50.10
15638;DHT22;26604;53.596;10.042;2023-06-14T12:53:27;27.00;50.80
15638;DHT22;26604;53.596;10.042;2023-06-14T12:55:55;27.00;51.80
15638;DHT22;26604;53.596;10.042;2023-06-14T12:58:22;26.90;51.50
15638;DHT22;26604;53.596;10.042;2023-06-14T13:00:50;26.80;50.70
15638;DHT22;26604;53.596;10.042;2023-06-14T13:03:17;26.70;50.80
15638;DHT22;26604;53.596;10.042;2023-06-14T13:05:44;26.50;51.10
15638;DHT22;26604;53.596;10.042;2023-06-14T13:08:11;26.20;50.40
15638;DHT22;26604;53.596;10.042;2023-06-14T13:10:38;26.00;51.40
15638;DHT22;26604;53.596;10.042;2023-06-14T13:13:07;26.10;51.40
15638;DHT22;26604;53.596;10.042;2023-06-14T13:15:34;26.20;50.40
15638;DHT22;26604;53.596;10.042;2023-06-14T13:18:01;26.40;50.60
15638;DHT22;26604;53.596;10.042;2023-06-14T13:20:28;26.60;48.70
15638;DHT22;26604;53.596;10.042;2023-06-14T13:22:55;26.60;49.10
15638;DHT22;26604;53.596;10.042;2023-06-14T13:25:22;26.70;49.80
15638;DHT22;26604;53.596;10.042;2023-06-14T13:27:49;26.60;51.30
15638;DHT22;26604;53.596;10.042;2023-06-14T13:30:17;26.40;52.50
15638;DHT22;26604;53.596;10.042;2023-06-14T13:32:44;26.00;52.90
15638;DHT22;26604;53.596;10.042;2023-06-14T13:35:11;25.60;54.20
15638;DHT22;26604;53.596;10.042;2023-06-14T13:37:38;25.30;55.80
15638;DHT22;26604;53.596;10.042;2023-06-14T13:40:07;25.20;55.20
15638;DHT22;26604;53.596;10.042;2023-06-14T13:42:34;25.20;56.00
15638;DHT22;26604;53.596;10.042;2023-06-14T13:45:01;25.20;55.60
15638;DHT22;26604;53.596;10.042;2023-06-14T13:47:30;25.20;55.90
15638;DHT22;26604;53.596;10.042;2023-06-14T13:49:57;25.40;55.10
15638;DHT22;26604;53.596;10.042;2023-06-14T13:52:24;25.40;55.10
15638;DHT22;26604;53.596;10.042;2023-06-14T13:54:51;25.20;54.90
15638;DHT22;26604;53.596;10.042;2023-06-14T13:57:20;25.20;55.20
15638;DHT22;26604;53.596;10.042;2023-06-14T13:59:47;25.20;54.80
15638;DHT22;26604;53.596;10.042;2023-06-14T14:02:14;25.00;54.20
15638;DHT22;26604;53.596;10.042;2023-06-14T14:04:42;24.90;54.50
15638;DHT22;26604;53.596;10.042;2023-06-14T14:07:09;24.90;55.10
15638;DHT22;26604;53.596;10.042;2023-06-14T14:09:36;25.00;54.70
15638;DHT22;26604;53.596;10.042;2023-06-14T14:12:05;25.20;54.10
15638;DHT22;26604;53.596;10.042;2023-06-14T14:14:32;25.30;53.20
15638;DHT22;26604;53.596;10.042;2023-06-14T14:16:59;25.50;52.20
15638;DHT22;26604;53.596;10.042;2023-06-14T14:19:26;25.70;51.90
15638;DHT22;26604;53.596;10.042;2023-06-14T14:21:55;25.90;50.20
15638;DHT22;26604;53.596;10.042;2023-06-14T14:24:25;25.80;50.70
15638;DHT22;26604;53.596;10.042;2023-06-14T14:26:52;25.80;50.80
15638;DHT22;26604;53.596;10.042;2023-06-14T14:29:19;25.60;52.00
15638;DHT22;26604;53.596;10.042;2023-06-14T14:31:46;25.50;52.10
15638;DHT22;26604;53.596;10.042;2023-06-14T14:34:13;25.40;53.30
15638;DHT22;26604;53.596;10.042;2023-06-14T14:36:46;25.50;53.20
15638;DHT22;26604;53.596;10.042;2023-06-14T14:39:28;25.50;52.60
15638;DHT22;26604;53.596;10.042;2023-06-14T14:42:09;25.60;52.00
15638;DHT22;26604;53.596;10.042;2023-06-14T14:44:36;25.50;51.00
15638;DHT22;26604;53.596;10.042;2023-06-14T14:47:04;25.40;49.80
15638;DHT22;26604;53.596;10.042;2023-06-14T14:49:34;25.20;50.60
15638;DHT22;26604;53.596;10.042;2023-06-14T14:52:01;25.20;51.70
15638;DHT22;26604;53.596;10.042;2023-06-14T14:54:29;25.20;51.40
15638;DHT22;26604;53.596;10.042;2023-06-14T14:56:56;25.20;51.10
15638;DHT22;26604;53.596;10.042;2023-06-14T14:59:23;25.20;50.10
15638;DHT22;26604;53.596;10.042;2023-06-14T15:01:50;25.20;51.20
15638;DHT22;26604;53.596;10.042;2023-06-14T15:04:17;25.10;50.80
15638;DHT22;26604;53.596;10.042;2023-06-14T15:06:44;25.10;51.00
15638;DHT22;26604;53.596;10.042;2023-06-14T15:09:11;25.10;50.70
15638;DHT22;26604;53.596;10.042;2023-06-14T15:11:42;25.10;49.80
15638;DHT22;26604;53.596;10.042;2023-06-14T15:14:10;25.10;49.90
15638;DHT22;26604;53.596;10.042;2023-06-14T15:16:36;25.10;51.10
15638;DHT22;26604;53.596;10.042;2023-06-14T15:19:04;25.10;50.40
15638;DHT22;26604;53.596;10.042;2023-06-14T15:21:31;25.00;50.40
15638;DHT22;26604;53.596;10.042;2023-06-14T15:23:58;25.00;50.30